Time;durP1;ratioP1;P1;durP2;ratioP2;P2;SDS_P1;SDS_P2;PMS_P1;PMS_P2;Temp;Humidity;BMP_temperature;BMP_pressure;BME280_temperature;BME280_humidity;BME280_pressure;Samples;Min_cycle;Max_cycle;Signal;HPM_P1;HPM_P2
2023/08/26 00:00:42;;;;;;;15.25;6.97;;;;;;;;;;4944318;28;20031;-79
2023/08/26 00:03:13;;;;;;;;;;;;;;;;;;4960470;28;20038;-78
2023/08/26 00:05:39;;;;;;;9.00;5.72;;;;;;;;;;4944219;28;19949;-78
2023/08/26 00:08:05;;;;;;;11.45;6.32;;;;;;;;;;4944793;28;20066;-79
2023/08/26 00:10:32;;;;;;;10.15;6.40;;;;;;;;;;4959685;28;20105;-78
2023/08/26 00:12:58;;;;;;;11.70;6.72;;;;;;;;;;4960865;28;20122;-79
2023/08/26 00:15:24;;;;;;;8.95;6.03;;;;;;;;;;4959706;28;20126;-78
2023/08/26 00:17:54;;;;;;;11.40;6.97;;;;;;;;;;4976139;28;20042;-77
2023/08/26 00:20:22;;;;;;;11.00;6.50;;;;;;;;;;4975761;28;20027;-78
2023/08/26 00:22:48;;;;;;;9.98;6.43;;;;;;;;;;4960508;28;20027;-78
2023/08/26 00:25:14;;;;;;;8.75;5.93;;;;;;;;;;4977006;28;20107;-78
2023/08/26 00:27:39;;;;;;;10.63;5.88;;;;;;;;;;4945824;28;20466;-79
2023/08/26 00:30:05;;;;;;;8.30;5.25;;;;;;;;;;4945174;28;20458;-77
2023/08/26 00:32:33;;;;;;;17.67;6.00;;;;;;;;;;4945240;28;20121;-78
2023/08/26 00:35:03;;;;;;;10.95;5.70;;;;;;;;;;4962181;28;20501;-78
2023/08/26 00:37:29;;;;;;;9.57;6.53;;;;;;;;;;4930304;28;20039;-78
2023/08/26 00:39:54;;;;;;;9.55;5.85;;;;;;;;;;4957914;28;20082;-78
2023/08/26 00:42:20;;;;;;;13.35;6.38;;;;;;;;;;4941788;28;20031;-77
2023/08/26 00:44:48;;;;;;;10.93;6.32;;;;;;;;;;4942487;28;20030;-78
2023/08/26 00:47:13;;;;;;;10.45;5.82;;;;;;;;;;4941633;28;20035;-77
2023/08/26 00:49:40;;;;;;;8.48;6.20;;;;;;;;;;4957594;28;20058;-78
2023/08/26 00:52:06;;;;;;;10.45;6.28;;;;;;;;;;4957712;28;20039;-77
2023/08/26 00:54:35;;;;;;;9.73;6.13;;;;;;;;;;4942197;28;20042;-77
2023/08/26 00:57:05;;;;;;;8.18;5.63;;;;;;;;;;4975436;28;20481;-78
2023/08/26 00:59:35;;;;;;;12.52;6.25;;;;;;;;;;4957965;28;20031;-77
2023/08/26 01:02:04;;;;;;;10.25;5.85;;;;;;;;;;4974239;28;20037;-77
2023/08/26 01:04:30;;;;;;;11.90;6.25;;;;;;;;;;4975177;28;20023;-77
2023/08/26 01:06:56;;;;;;;13.77;6.72;;;;;;;;;;4974259;28;20031;-77
2023/08/26 01:09:21;;;;;;;13.43;6.95;;;;;;;;;;4974195;28;20098;-78
2023/08/26 01:11:52;;;;;;;10.48;6.60;;;;;;;;;;4958342;28;20054;-78
2023/08/26 01:14:36;;;;;;;10.40;6.80;;;;;;;;;;4942497;28;20386;-77
2023/08/26 01:17:04;;;;;;;13.27;6.95;;;;;;;;;;4958587;28;20043;-77
2023/08/26 01:19:32;;;;;;;13.55;7.90;;;;;;;;;;4973505;28;20031;-77
2023/08/26 01:22:01;;;;;;;8.85;5.53;;;;;;;;;;4944156;28;20509;-78
2023/08/26 01:24:26;;;;;;;8.07;5.93;;;;;;;;;;4961584;28;20038;-77
2023/08/26 01:26:52;;;;;;;10.27;5.32;;;;;;;;;;4961024;28;20375;-77
2023/08/26 01:29:18;;;;;;;9.63;6.15;;;;;;;;;;4960853;28;20031;-77
2023/08/26 01:31:45;;;;;;;10.30;6.32;;;;;;;;;;4961033;28;20105;-78
2023/08/26 01:34:12;;;;;;;8.50;6.47;;;;;;;;;;4977041;28;20034;-79
2023/08/26 01:36:41;;;;;;;8.70;7.07;;;;;;;;;;4960364;28;20501;-77
2023/08/26 01:39:07;;;;;;;10.45;7.07;;;;;;;;;;4976245;28;20027;-78
2023/08/26 01:41:34;;;;;;;9.73;6.82;;;;;;;;;;4945121;28;20027;-78
2023/08/26 01:44:04;;;;;;;13.35;6.45;;;;;;;;;;4945297;28;20045;-78
2023/08/26 01:46:33;;;;;;;12.75;6.03;;;;;;;;;;4945502;28;20061;-79
2023/08/26 01:48:59;;;;;;;11.70;5.50;;;;;;;;;;4946302;28;20498;-79
2023/08/26 01:51:26;;;;;;;8.82;5.25;;;;;;;;;;4946422;28;20038;-78
2023/08/26 01:53:52;;;;;;;12.90;5.72;;;;;;;;;;4944229;28;20038;-78
2023/08/26 01:56:17;;;;;;;8.60;5.60;;;;;;;;;;4944556;28;20053;-78
2023/08/26 01:58:43;;;;;;;8.13;5.30;;;;;;;;;;4944635;28;20034;-78
2023/08/26 02:01:08;;;;;;;13.23;5.43;;;;;;;;;;4945685;28;20126;-79
2023/08/26 02:03:35;;;;;;;9.43;5.40;;;;;;;;;;4945948;28;20031;-78
2023/08/26 02:06:01;;;;;;;10.02;5.57;;;;;;;;;;4960853;28;20494;-77
2023/08/26 02:08:26;;;;;;;11.07;6.00;;;;;;;;;;4943986;28;20042;-77
2023/08/26 02:10:55;;;;;;;8.35;5.55;;;;;;;;;;4959409;28;20485;-77
2023/08/26 02:13:21;;;;;;;11.02;6.18;;;;;;;;;;4944876;28;20027;-77
2023/08/26 02:15:47;;;;;;;8.35;5.80;;;;;;;;;;4975813;28;20039;-78
2023/08/26 02:18:12;;;;;;;12.80;5.80;;;;;;;;;;4975344;28;20042;-77
2023/08/26 02:20:42;;;;;;;10.35;6.45;;;;;;;;;;4943645;28;20122;-77
2023/08/26 02:23:09;;;;;;;12.02;6.05;;;;;;;;;;4960615;28;20034;-77
2023/08/26 02:25:35;;;;;;;8.60;5.90;;;;;;;;;;4960483;28;20039;-76
2023/08/26 02:28:00;;;;;;;13.23;6.50;;;;;;;;;;4944385;28;20097;-77
2023/08/26 02:30:26;;;;;;;11.55;5.60;;;;;;;;;;4943364;28;20041;-77
2023/08/26 02:32:51;;;;;;;14.75;5.85;;;;;;;;;;4943351;28;20050;-76
2023/08/26 02:35:18;;;;;;;8.70;5.30;;;;;;;;;;4958890;28;20112;-76
2023/08/26 02:37:43;;;;;;;11.73;5.63;;;;;;;;;;4943089;28;20062;-76
2023/08/26 02:40:10;;;;;;;10.75;6.03;;;;;;;;;;4942994;28;20474;-76
2023/08/26 02:42:36;;;;;;;11.35;6.38;;;;;;;;;;4942985;28;20050;-77
2023/08/26 02:45:04;;;;;;;11.35;6.40;;;;;;;;;;4958887;28;20033;-76
2023/08/26 02:47:44;;;;;;;7.88;5.82;;;;;;;;;;4945658;28;20142;-76
2023/08/26 02:50:39;;;;;;;9.47;6.10;;;;;;;;;;4965855;28;20049;-76
2023/08/26 02:53:12;;;;;;;12.55;6.55;;;;;;;;;;4944537;28;20102;-77
2023/08/26 02:55:45;;;;;;;12.90;6.40;;;;;;;;;;4974847;28;20035;-77
2023/08/26 02:58:22;;;;;;;9.00;5.65;;;;;;;;;;4959639;28;20030;-76
2023/08/26 03:00:55;;;;;;;10.70;5.88;;;;;;;;;;4959247;28;20049;-77
2023/08/26 03:03:24;;;;;;;12.15;5.75;;;;;;;;;;4959916;28;20030;-76
2023/08/26 03:05:58;;;;;;;12.45;5.43;;;;;;;;;;4958182;28;20410;-78
2023/08/26 03:08:31;;;;;;;8.80;5.28;;;;;;;;;;4973987;28;20035;-77
2023/08/26 03:11:24;;;;;;;8.93;5.18;;;;;;;;;;4959770;28;20045;-77
2023/08/26 03:14:23;;;;;;;12.30;4.80;;;;;;;;;;4945983;28;20043;-77
2023/08/26 03:17:11;;;;;;;8.52;5.05;;;;;;;;;;4975176;28;20121;-76
2023/08/26 03:19:41;;;;;;;7.35;3.83;;;;;;;;;;4959185;28;20035;-76
2023/08/26 03:22:17;;;;;;;8.43;4.50;;;;;;;;;;4945101;28;20079;-77
2023/08/26 03:24:58;;;;;;;10.40;4.60;;;;;;;;;;4960232;28;20071;-77
2023/08/26 03:27:26;;;;;;;7.72;4.10;;;;;;;;;;4978007;28;20114;-76
2023/08/26 03:29:54;;;;;;;9.30;3.40;;;;;;;;;;4958058;28;20031;-77
2023/08/26 03:32:28;;;;;;;9.00;3.55;;;;;;;;;;4959644;28;20034;-77
2023/08/26 03:34:57;;;;;;;7.95;4.05;;;;;;;;;;4960042;28;20081;-78
2023/08/26 03:37:23;;;;;;;8.10;4.60;;;;;;;;;;4959430;28;20255;-78
2023/08/26 03:39:49;;;;;;;12.30;5.40;;;;;;;;;;4976062;28;20026;-77
2023/08/26 03:42:18;;;;;;;10.32;5.15;;;;;;;;;;4944620;28;20050;-77
2023/08/26 03:44:43;;;;;;;8.63;5.70;;;;;;;;;;4942995;28;20031;-78
2023/08/26 03:47:10;;;;;;;12.85;5.25;;;;;;;;;;4945048;28;20042;-77
2023/08/26 03:49:35;;;;;;;9.98;6.07;;;;;;;;;;4931423;28;20133;-77
2023/08/26 03:52:03;;;;;;;11.52;5.43;;;;;;;;;;4963307;28;20097;-77
2023/08/26 03:54:29;;;;;;;13.10;5.38;;;;;;;;;;4962774;28;20054;-77
2023/08/26 03:56:56;;;;;;;6.15;4.28;;;;;;;;;;4944149;28;20031;-77
2023/08/26 03:59:22;;;;;;;9.52;5.05;;;;;;;;;;4958424;28;20039;-77
2023/08/26 04:01:49;;;;;;;10.13;5.68;;;;;;;;;;4958604;28;20118;-78
2023/08/26 04:04:15;;;;;;;9.05;5.15;;;;;;;;;;4958607;28;20031;-78
2023/08/26 04:06:41;;;;;;;12.00;5.28;;;;;;;;;;4958320;28;20046;-78
2023/08/26 04:09:06;;;;;;;10.63;4.85;;;;;;;;;;4942338;28;20101;-77
2023/08/26 04:11:32;;;;;;;8.07;4.45;;;;;;;;;;4974271;28;20081;-77
2023/08/26 04:13:58;;;;;;;6.75;4.18;;;;;;;;;;4959541;28;20039;-77
2023/08/26 04:16:23;;;;;;;6.85;3.88;;;;;;;;;;4958598;28;20042;-78
2023/08/26 04:18:50;;;;;;;12.20;4.68;;;;;;;;;;4942792;28;20478;-78
2023/08/26 04:21:15;;;;;;;8.85;4.43;;;;;;;;;;4958997;28;20081;-77
2023/08/26 04:23:41;;;;;;;11.02;4.03;;;;;;;;;;4975212;28;20030;-77
2023/08/26 04:26:07;;;;;;;9.80;3.90;;;;;;;;;;4943633;28;20090;-77
2023/08/26 04:28:32;;;;;;;5.65;3.70;;;;;;;;;;4974816;28;20027;-78
2023/08/26 04:31:01;;;;;;;8.93;4.25;;;;;;;;;;4958976;28;20045;-77
2023/08/26 04:33:27;;;;;;;7.13;3.78;;;;;;;;;;4957952;28;20383;-78
2023/08/26 04:35:52;;;;;;;8.20;4.03;;;;;;;;;;4974541;28;20046;-77
2023/08/26 04:38:18;;;;;;;6.78;3.67;;;;;;;;;;4959479;28;20061;-77
2023/08/26 04:40:44;;;;;;;11.63;5.10;;;;;;;;;;4958339;28;20035;-77
2023/08/26 04:43:10;;;;;;;5.97;3.47;;;;;;;;;;4959888;28;20031;-77
2023/08/26 04:45:39;;;;;;;10.63;3.70;;;;;;;;;;4959028;28;20406;-77
2023/08/26 04:48:05;;;;;;;5.53;3.60;;;;;;;;;;4975381;28;20041;-77
2023/08/26 04:50:32;;;;;;;9.27;3.47;;;;;;;;;;4973735;28;20027;-76
2023/08/26 04:52:58;;;;;;;11.93;3.47;;;;;;;;;;4974925;28;20400;-77
2023/08/26 04:55:24;;;;;;;10.00;3.45;;;;;;;;;;4974968;28;20151;-76
2023/08/26 04:57:49;;;;;;;8.82;3.60;;;;;;;;;;4977674;28;20094;-76
2023/08/26 05:00:16;;;;;;;7.35;2.90;;;;;;;;;;4976902;28;20486;-77
2023/08/26 05:02:42;;;;;;;14.05;4.15;;;;;;;;;;4961889;28;20106;-77
2023/08/26 05:05:08;;;;;;;7.93;2.92;;;;;;;;;;4976831;28;20090;-77
2023/08/26 05:07:34;;;;;;;7.85;2.85;;;;;;;;;;4977489;28;20046;-77
2023/08/26 05:10:00;;;;;;;6.63;2.67;;;;;;;;;;4976250;28;20055;-77
2023/08/26 05:12:26;;;;;;;7.65;2.75;;;;;;;;;;4980896;28;20097;-76
2023/08/26 05:14:51;;;;;;;11.60;3.25;;;;;;;;;;4977334;28;20038;-77
2023/08/26 05:17:17;;;;;;;6.57;3.03;;;;;;;;;;4945129;28;20037;-77
2023/08/26 05:19:42;;;;;;;5.40;2.60;;;;;;;;;;4962639;28;20034;-77
2023/08/26 05:22:08;;;;;;;8.43;2.88;;;;;;;;;;4978097;28;20042;-76
2023/08/26 05:24:34;;;;;;;8.00;2.75;;;;;;;;;;4978759;28;20030;-77
2023/08/26 05:27:00;;;;;;;9.23;2.90;;;;;;;;;;4961378;28;20031;-76
2023/08/26 05:29:26;;;;;;;6.45;3.15;;;;;;;;;;4977121;28;20035;-77
2023/08/26 05:31:53;;;;;;;7.70;3.65;;;;;;;;;;4960268;28;20034;-76
2023/08/26 05:34:19;;;;;;;8.02;2.47;;;;;;;;;;4960918;28;20047;-76
2023/08/26 05:36:47;;;;;;;7.07;2.85;;;;;;;;;;4960302;28;20069;-76
2023/08/26 05:39:12;;;;;;;7.25;2.60;;;;;;;;;;4943803;28;20027;-77
2023/08/26 05:41:38;;;;;;;5.78;2.88;;;;;;;;;;4976212;28;20114;-75
2023/08/26 05:44:04;;;;;;;8.25;3.08;;;;;;;;;;4959864;28;20380;-76
2023/08/26 05:46:31;;;;;;;5.60;3.25;;;;;;;;;;4978108;28;20411;-76
2023/08/26 05:48:58;;;;;;;6.43;3.75;;;;;;;;;;4976230;28;20035;-77
2023/08/26 05:51:23;;;;;;;8.48;3.30;;;;;;;;;;4960510;28;20571;-78
2023/08/26 05:53:49;;;;;;;8.05;3.47;;;;;;;;;;4944700;28;20043;-77
2023/08/26 05:56:16;;;;;;;8.05;3.28;;;;;;;;;;4944116;28;20117;-76
2023/08/26 05:58:45;;;;;;;6.93;3.33;;;;;;;;;;4975752;28;20031;-76
2023/08/26 06:01:12;;;;;;;8.30;2.92;;;;;;;;;;4944686;28;20038;-76
2023/08/26 06:03:37;;;;;;;14.90;3.20;;;;;;;;;;4945198;28;20402;-76
2023/08/26 06:06:03;;;;;;;7.95;3.15;;;;;;;;;;4944854;28;20038;-76
2023/08/26 06:08:29;;;;;;;7.05;3.15;;;;;;;;;;4963079;28;20047;-76
2023/08/26 06:10:55;;;;;;;7.88;3.22;;;;;;;;;;4946310;28;20031;-76
2023/08/26 06:13:27;;;;;;;7.88;3.75;;;;;;;;;;4946978;28;20054;-76
2023/08/26 06:15:59;;;;;;;8.15;3.53;;;;;;;;;;4947870;28;20494;-76
2023/08/26 06:18:26;;;;;;;7.80;4.00;;;;;;;;;;4961926;28;20035;-76
2023/08/26 06:20:52;;;;;;;7.72;3.95;;;;;;;;;;4960185;28;20073;-77
2023/08/26 06:23:18;;;;;;;10.00;3.75;;;;;;;;;;4960447;28;20092;-76
2023/08/26 06:25:54;;;;;;;6.85;2.95;;;;;;;;;;4961096;28;20035;-76
2023/08/26 06:28:22;;;;;;;6.65;3.28;;;;;;;;;;4977292;28;20055;-76
2023/08/26 06:30:48;;;;;;;9.35;4.68;;;;;;;;;;4961549;28;20042;-76
2023/08/26 06:33:14;;;;;;;15.40;3.85;;;;;;;;;;4960944;28;20402;-76
2023/08/26 06:35:40;;;;;;;7.53;3.53;;;;;;;;;;4960960;28;20121;-75
2023/08/26 06:38:07;;;;;;;10.82;3.50;;;;;;;;;;4947847;28;20486;-76
2023/08/26 06:40:34;;;;;;;9.68;3.65;;;;;;;;;;4961245;28;20054;-77
2023/08/26 06:43:02;;;;;;;10.27;3.63;;;;;;;;;;4977013;28;20057;-75
2023/08/26 06:45:28;;;;;;;10.70;3.95;;;;;;;;;;4944826;28;20038;-77
2023/08/26 06:47:54;;;;;;;7.93;4.13;;;;;;;;;;4961034;28;20498;-76
2023/08/26 06:50:20;;;;;;;6.55;4.65;;;;;;;;;;4960144;28;20034;-76
2023/08/26 06:52:46;;;;;;;11.00;5.72;;;;;;;;;;4976421;28;20038;-76
2023/08/26 06:55:11;;;;;;;10.55;5.20;;;;;;;;;;4944169;28;20089;-77
2023/08/26 06:57:37;;;;;;;8.45;5.75;;;;;;;;;;4959524;28;20035;-77
2023/08/26 07:00:08;;;;;;;7.53;4.55;;;;;;;;;;4975652;28;20471;-77
2023/08/26 07:02:36;;;;;;;8.20;4.40;;;;;;;;;;4976619;28;20023;-78
2023/08/26 07:05:02;;;;;;;9.80;5.13;;;;;;;;;;4961467;28;20046;-77
2023/08/26 07:07:28;;;;;;;7.57;4.10;;;;;;;;;;4946968;28;20069;-77
2023/08/26 07:09:54;;;;;;;8.23;4.10;;;;;;;;;;4978309;28;20497;-76
2023/08/26 07:12:19;;;;;;;7.22;4.53;;;;;;;;;;4981101;28;20395;-76
2023/08/26 07:14:45;;;;;;;7.22;4.00;;;;;;;;;;4981282;28;20042;-76
2023/08/26 07:17:12;;;;;;;7.35;4.63;;;;;;;;;;4961653;28;20118;-77
2023/08/26 07:19:37;;;;;;;12.05;4.15;;;;;;;;;;4958024;28;20038;-78
2023/08/26 07:22:03;;;;;;;8.52;3.50;;;;;;;;;;4961878;28;20034;-77
2023/08/26 07:24:29;;;;;;;9.02;3.47;;;;;;;;;;4962316;28;20091;-78
2023/08/26 07:26:55;;;;;;;8.23;2.95;;;;;;;;;;4947027;28;20483;-77
2023/08/26 07:29:21;;;;;;;3.70;2.10;;;;;;;;;;4950358;28;20029;-76
2023/08/26 07:31:46;;;;;;;6.53;2.55;;;;;;;;;;4967240;28;20391;-77
2023/08/26 07:34:13;;;;;;;7.38;2.83;;;;;;;;;;4949988;28;20069;-76
2023/08/26 07:36:38;;;;;;;5.75;2.33;;;;;;;;;;4965152;28;20044;-77
2023/08/26 07:39:04;;;;;;;4.32;2.20;;;;;;;;;;4980553;28;20087;-77
2023/08/26 07:41:30;;;;;;;3.70;2.40;;;;;;;;;;4963217;28;20061;-77
2023/08/26 07:43:55;;;;;;;4.35;2.20;;;;;;;;;;4979557;28;20057;-77
2023/08/26 07:46:22;;;;;;;6.70;1.80;;;;;;;;;;4979199;28;20450;-77
2023/08/26 07:48:50;;;;;;;7.03;2.15;;;;;;;;;;4979617;28;20137;-77
2023/08/26 07:51:16;;;;;;;8.30;2.15;;;;;;;;;;4947890;28;20039;-77
2023/08/26 07:53:42;;;;;;;4.28;1.88;;;;;;;;;;4967983;28;20074;-76
2023/08/26 07:56:08;;;;;;;3.00;1.90;;;;;;;;;;4966376;28;20104;-75
2023/08/26 07:58:33;;;;;;;5.82;1.77;;;;;;;;;;4982968;28;20339;-76
2023/08/26 08:00:59;;;;;;;3.85;1.80;;;;;;;;;;4950787;28;20026;-77
2023/08/26 08:03:24;;;;;;;3.38;1.88;;;;;;;;;;4986378;28;20046;-77
2023/08/26 08:05:51;;;;;;;4.32;2.08;;;;;;;;;;4971759;28;20030;-77
2023/08/26 08:08:16;;;;;;;6.25;2.28;;;;;;;;;;4987697;28;20107;-77
2023/08/26 08:10:42;;;;;;;3.58;2.10;;;;;;;;;;4984468;28;20061;-77
2023/08/26 08:13:09;;;;;;;4.45;1.83;;;;;;;;;;4954576;28;20042;-77
2023/08/26 08:15:34;;;;;;;5.97;2.10;;;;;;;;;;4971277;28;20623;-77
2023/08/26 08:18:00;;;;;;;7.75;2.30;;;;;;;;;;4971443;28;20031;-76
2023/08/26 08:20:26;;;;;;;5.28;2.95;;;;;;;;;;4955437;28;20107;-77
2023/08/26 08:22:52;;;;;;;6.45;3.25;;;;;;;;;;4985077;28;20407;-77
2023/08/26 08:25:17;;;;;;;7.00;3.88;;;;;;;;;;4969378;28;20027;-77
2023/08/26 08:27:43;;;;;;;6.95;3.28;;;;;;;;;;4972538;28;20031;-77
2023/08/26 08:30:09;;;;;;;6.75;3.95;;;;;;;;;;4973856;28;20042;-77
2023/08/26 08:32:35;;;;;;;7.15;3.72;;;;;;;;;;4980502;28;20026;-77
2023/08/26 08:35:02;;;;;;;8.63;4.18;;;;;;;;;;4980221;28;20046;-78
2023/08/26 08:37:27;;;;;;;11.75;4.38;;;;;;;;;;4979371;28;20047;-76
2023/08/26 08:39:53;;;;;;;8.80;4.60;;;;;;;;;;4962797;28;20097;-76
2023/08/26 08:42:19;;;;;;;10.25;4.75;;;;;;;;;;4993660;28;20092;-76
2023/08/26 08:44:48;;;;;;;7.85;5.30;;;;;;;;;;4975792;28;20513;-77
2023/08/26 08:47:14;;;;;;;7.82;5.38;;;;;;;;;;4974019;28;20039;-76
2023/08/26 08:49:41;;;;;;;9.20;5.18;;;;;;;;;;4991175;28;20109;-76
2023/08/26 08:52:07;;;;;;;9.25;5.68;;;;;;;;;;4984850;28;20027;-77
2023/08/26 08:54:33;;;;;;;10.82;5.57;;;;;;;;;;4982720;28;20037;-78
2023/08/26 08:57:00;;;;;;;10.38;5.65;;;;;;;;;;4979703;28;20031;-77
2023/08/26 08:59:29;;;;;;;12.07;5.93;;;;;;;;;;4982864;28;20019;-78
2023/08/26 09:01:55;;;;;;;8.65;5.40;;;;;;;;;;4963726;28;20042;-79
2023/08/26 09:04:21;;;;;;;9.70;5.20;;;;;;;;;;4961219;28;20031;-78
2023/08/26 09:06:48;;;;;;;9.60;4.90;;;;;;;;;;4977280;28;20049;-77
2023/08/26 09:09:15;;;;;;;12.55;4.80;;;;;;;;;;4961039;28;20502;-78
2023/08/26 09:11:40;;;;;;;11.95;5.22;;;;;;;;;;4946000;28;20117;-77
2023/08/26 09:14:06;;;;;;;7.82;4.70;;;;;;;;;;4978078;28;20058;-77
2023/08/26 09:16:36;;;;;;;8.25;4.63;;;;;;;;;;4960709;28;20039;-77
2023/08/26 09:19:03;;;;;;;8.98;4.30;;;;;;;;;;4977677;28;20037;-78
2023/08/26 09:21:28;;;;;;;8.63;4.40;;;;;;;;;;4977019;28;20406;-77
2023/08/26 09:23:54;;;;;;;9.02;3.90;;;;;;;;;;4960080;28;20023;-77
2023/08/26 09:26:22;;;;;;;6.90;3.78;;;;;;;;;;4963172;28;20039;-77
2023/08/26 09:28:49;;;;;;;8.70;3.55;;;;;;;;;;4964781;28;20105;-78
2023/08/26 09:31:15;;;;;;;9.63;3.55;;;;;;;;;;4963657;28;20035;-77
2023/08/26 09:33:41;;;;;;;9.60;3.30;;;;;;;;;;4978523;28;20081;-77
2023/08/26 09:36:06;;;;;;;8.57;3.65;;;;;;;;;;4979005;28;20049;-77
2023/08/26 09:38:47;;;;;;;6.88;2.97;;;;;;;;;;4976812;28;20031;-77
2023/08/26 09:41:19;;;;;;;6.60;2.95;;;;;;;;;;4976863;28;20094;-77
2023/08/26 09:43:45;;;;;;;7.90;3.35;;;;;;;;;;4976672;28;20034;-77
2023/08/26 09:46:17;;;;;;;4.30;2.70;;;;;;;;;;4962025;28;20510;-77
2023/08/26 09:48:43;;;;;;;5.95;2.80;;;;;;;;;;4978338;28;20041;-78
2023/08/26 09:51:09;;;;;;;5.22;2.50;;;;;;;;;;4978910;28;20026;-78
2023/08/26 09:53:35;;;;;;;5.93;2.17;;;;;;;;;;4979487;28;20042;-78
2023/08/26 09:56:02;;;;;;;5.90;2.40;;;;;;;;;;4962917;28;20035;-78
2023/08/26 09:58:27;;;;;;;8.85;2.25;;;;;;;;;;4961602;28;20035;-78
2023/08/26 10:00:53;;;;;;;11.85;2.72;;;;;;;;;;4976436;28;20027;-78
2023/08/26 10:03:22;;;;;;;5.63;2.50;;;;;;;;;;4975957;28;20035;-77
2023/08/26 10:05:49;;;;;;;7.05;2.20;;;;;;;;;;4975959;28;20027;-78
2023/08/26 10:08:15;;;;;;;7.83;2.57;;;;;;;;;;4960192;28;20035;-78
2023/08/26 10:10:49;;;;;;;6.22;2.60;;;;;;;;;;4976516;28;20582;-78
2023/08/26 10:13:18;;;;;;;6.65;2.65;;;;;;;;;;4975755;28;20031;-77
2023/08/26 10:15:44;;;;;;;10.75;2.55;;;;;;;;;;4960635;28;20091;-78
2023/08/26 10:18:13;;;;;;;10.05;2.60;;;;;;;;;;4960800;28;20118;-78
2023/08/26 10:20:40;;;;;;;9.50;2.83;;;;;;;;;;4977191;28;20027;-78
2023/08/26 10:23:06;;;;;;;8.18;2.50;;;;;;;;;;4978866;28;20026;-78
2023/08/26 10:25:32;;;;;;;6.95;2.65;;;;;;;;;;4963788;28;20048;-78
2023/08/26 10:27:58;;;;;;;10.57;2.80;;;;;;;;;;4984020;28;20034;-78
2023/08/26 10:30:24;;;;;;;9.13;2.83;;;;;;;;;;4986629;28;20039;-80
2023/08/26 10:32:57;;;;;;;7.07;2.60;;;;;;;;;;4953816;28;20069;-77
2023/08/26 10:35:24;;;;;;;9.70;2.80;;;;;;;;;;4986019;28;20033;-77
2023/08/26 10:37:51;;;;;;;6.78;2.83;;;;;;;;;;4981606;28;20059;-78
2023/08/26 10:40:17;;;;;;;7.72;3.20;;;;;;;;;;4976038;28;20094;-77
2023/08/26 10:43:01;;;;;;;11.27;2.60;;;;;;;;;;4976250;28;20034;-77
2023/08/26 10:45:27;;;;;;;6.80;2.55;;;;;;;;;;4974671;28;20038;-79
2023/08/26 10:47:54;;;;;;;8.02;3.00;;;;;;;;;;4976802;28;20038;-78
2023/08/26 10:50:21;;;;;;;7.55;2.90;;;;;;;;;;4958262;28;20065;-78
2023/08/26 10:53:12;;;;;;;6.95;3.20;;;;;;;;;;4958109;28;20035;-79
2023/08/26 10:55:38;;;;;;;5.93;2.50;;;;;;;;;;4977106;28;20039;-79
2023/08/26 10:58:06;;;;;;;8.25;2.78;;;;;;;;;;4959172;28;20082;-78
2023/08/26 11:00:33;;;;;;;9.55;3.17;;;;;;;;;;4978269;28;20109;-78
2023/08/26 11:03:03;;;;;;;6.85;3.05;;;;;;;;;;4982540;28;20491;-78
2023/08/26 11:05:31;;;;;;;7.43;2.80;;;;;;;;;;4965270;28;20114;-78
2023/08/26 11:07:56;;;;;;;;;;;;;;;;;;4979446;28;20038;-78
2023/08/26 11:10:27;;;;;;;8.50;2.80;;;;;;;;;;4962725;28;20424;-78
2023/08/26 11:12:52;;;;;;;8.85;2.50;;;;;;;;;;4977715;28;20046;-78
2023/08/26 11:15:18;;;;;;;7.55;2.80;;;;;;;;;;4962588;28;20034;-79
2023/08/26 11:17:43;;;;;;;7.00;2.70;;;;;;;;;;4980471;28;20031;-79
2023/08/26 11:20:09;;;;;;;5.03;2.50;;;;;;;;;;4979546;28;20030;-79
2023/08/26 11:22:35;;;;;;;8.13;2.85;;;;;;;;;;4978351;28;20039;-79
2023/08/26 11:25:00;;;;;;;8.75;2.60;;;;;;;;;;4980112;28;20031;-79
2023/08/26 11:27:26;;;;;;;7.05;2.67;;;;;;;;;;4977114;28;20292;-79
2023/08/26 11:29:52;;;;;;;7.95;2.70;;;;;;;;;;4978322;28;20114;-80
2023/08/26 11:32:18;;;;;;;7.95;2.90;;;;;;;;;;4979689;28;20409;-81
2023/08/26 11:34:43;;;;;;;6.05;2.38;;;;;;;;;;4978063;28;20030;-80
2023/08/26 11:37:09;;;;;;;6.18;2.28;;;;;;;;;;4978290;28;20119;-80
2023/08/26 11:39:35;;;;;;;4.68;2.17;;;;;;;;;;4960488;28;20071;-79
2023/08/26 11:42:20;;;;;;;4.20;2.30;;;;;;;;;;4976335;28;20070;-80
2023/08/26 11:44:46;;;;;;;7.72;2.20;;;;;;;;;;4978942;28;20043;-80
2023/08/26 11:47:12;;;;;;;7.97;2.08;;;;;;;;;;4979402;28;20134;-80
2023/08/26 11:49:38;;;;;;;4.70;2.22;;;;;;;;;;4979304;28;20110;-80
2023/08/26 11:52:04;;;;;;;6.50;2.20;;;;;;;;;;4979650;28;20559;-79
2023/08/26 11:54:30;;;;;;;7.68;2.55;;;;;;;;;;4980096;28;20038;-80
2023/08/26 11:56:55;;;;;;;5.78;2.40;;;;;;;;;;4980508;28;20031;-80
2023/08/26 11:59:21;;;;;;;6.13;2.05;;;;;;;;;;4984858;28;20070;-79
2023/08/26 12:01:47;;;;;;;5.22;2.30;;;;;;;;;;4961798;28;20111;-79
2023/08/26 12:04:13;;;;;;;6.82;2.53;;;;;;;;;;4992833;28;20015;-80
2023/08/26 12:06:39;;;;;;;7.47;2.53;;;;;;;;;;4980866;28;20030;-80
2023/08/26 12:09:05;;;;;;;6.80;2.10;;;;;;;;;;4978194;28;20030;-79
2023/08/26 12:11:37;;;;;;;5.88;2.38;;;;;;;;;;4980051;28;20038;-79
2023/08/26 12:14:17;;;;;;;10.77;2.22;;;;;;;;;;4978979;28;20368;-79
2023/08/26 12:16:43;;;;;;;5.28;2.42;;;;;;;;;;4977243;28;20031;-79
2023/08/26 12:19:18;;;;;;;6.18;2.45;;;;;;;;;;4978811;28;20042;-79
2023/08/26 12:21:50;;;;;;;5.07;2.17;;;;;;;;;;4978357;28;20027;-79
2023/08/26 12:24:23;;;;;;;5.65;2.38;;;;;;;;;;4963273;28;20070;-79
2023/08/26 12:26:48;;;;;;;6.03;2.13;;;;;;;;;;4979086;28;20103;-81
2023/08/26 12:29:14;;;;;;;5.25;2.10;;;;;;;;;;4980972;28;20038;-80
2023/08/26 12:31:40;;;;;;;6.35;2.45;;;;;;;;;;4965688;28;20035;-80
2023/08/26 12:34:05;;;;;;;4.05;1.92;;;;;;;;;;4949417;28;20035;-80
2023/08/26 12:36:31;;;;;;;7.72;2.08;;;;;;;;;;4980047;28;20077;-80
2023/08/26 12:38:57;;;;;;;4.95;2.60;;;;;;;;;;4961242;28;20078;-79
2023/08/26 12:41:22;;;;;;;5.43;2.08;;;;;;;;;;4980543;28;20238;-80
2023/08/26 12:43:50;;;;;;;5.90;2.33;;;;;;;;;;4981934;28;20039;-80
2023/08/26 12:46:16;;;;;;;5.38;2.20;;;;;;;;;;4987118;28;20410;-79
2023/08/26 12:48:42;;;;;;;6.50;2.30;;;;;;;;;;4952282;28;20038;-79
2023/08/26 12:51:08;;;;;;;6.80;1.92;;;;;;;;;;4986456;28;20034;-79
2023/08/26 12:53:34;;;;;;;4.10;1.67;;;;;;;;;;4987633;28;20031;-79
2023/08/26 12:56:00;;;;;;;7.50;1.90;;;;;;;;;;4987607;28;20061;-79
2023/08/26 12:58:26;;;;;;;4.20;2.00;;;;;;;;;;4985781;28;20062;-79
2023/08/26 13:00:52;;;;;;;4.90;1.80;;;;;;;;;;4954611;28;20052;-79
2023/08/26 13:03:18;;;;;;;4.32;2.15;;;;;;;;;;4970680;28;20039;-79
2023/08/26 13:05:44;;;;;;;5.47;1.70;;;;;;;;;;4972602;28;20146;-79
2023/08/26 13:08:10;;;;;;;4.43;1.50;;;;;;;;;;4989749;28;20073;-79
2023/08/26 13:10:37;;;;;;;4.57;1.77;;;;;;;;;;4956723;28;20035;-79
2023/08/26 13:13:03;;;;;;;5.38;1.67;;;;;;;;;;4970176;28;20042;-79
2023/08/26 13:15:29;;;;;;;7.32;1.95;;;;;;;;;;4971035;28;20057;-79
2023/08/26 13:17:55;;;;;;;2.80;1.45;;;;;;;;;;4973564;28;20095;-79
2023/08/26 13:20:21;;;;;;;6.93;1.77;;;;;;;;;;4989430;28;20030;-79
2023/08/26 13:22:47;;;;;;;5.60;1.77;;;;;;;;;;4989479;28;20045;-79
2023/08/26 13:25:13;;;;;;;4.13;1.73;;;;;;;;;;4988347;28;20031;-80
2023/08/26 13:27:39;;;;;;;5.73;1.80;;;;;;;;;;4956388;28;20058;-80
2023/08/26 13:30:05;;;;;;;3.83;1.40;;;;;;;;;;4988799;28;20023;-79
2023/08/26 13:32:31;;;;;;;4.63;2.55;;;;;;;;;;4971687;28;20545;-79
2023/08/26 13:34:57;;;;;;;4.10;1.63;;;;;;;;;;4971466;28;20035;-80
2023/08/26 13:37:23;;;;;;;4.78;1.65;;;;;;;;;;4988384;28;20031;-80
2023/08/26 13:39:49;;;;;;;6.28;2.33;;;;;;;;;;4984966;28;20035;-79
2023/08/26 13:42:14;;;;;;;3.35;1.48;;;;;;;;;;4961788;28;20031;-79
2023/08/26 13:44:40;;;;;;;6.45;1.77;;;;;;;;;;4978075;28;20027;-79
2023/08/26 13:47:05;;;;;;;4.40;1.90;;;;;;;;;;4987566;28;20054;-79
2023/08/26 13:49:31;;;;;;;3.97;1.80;;;;;;;;;;4985902;28;20031;-78
2023/08/26 13:52:00;;;;;;;4.20;1.85;;;;;;;;;;4987329;28;20066;-78
2023/08/26 13:54:25;;;;;;;5.10;1.58;;;;;;;;;;4983058;28;20027;-79
2023/08/26 13:56:51;;;;;;;3.58;1.45;;;;;;;;;;4970565;28;20035;-79
2023/08/26 13:59:16;;;;;;;4.90;1.48;;;;;;;;;;4985728;28;20034;-79
2023/08/26 14:01:42;;;;;;;4.13;1.48;;;;;;;;;;4989645;28;20027;-79
2023/08/26 14:04:07;;;;;;;5.35;1.42;;;;;;;;;;4986579;28;20051;-79
2023/08/26 14:06:36;;;;;;;4.75;1.52;;;;;;;;;;4987855;28;20054;-79
2023/08/26 14:09:02;;;;;;;4.82;1.40;;;;;;;;;;4973757;28;20042;-79
2023/08/26 14:11:27;;;;;;;5.22;1.60;;;;;;;;;;4952194;28;20453;-78
2023/08/26 14:13:53;;;;;;;3.72;1.30;;;;;;;;;;4957330;28;20066;-78
2023/08/26 14:16:19;;;;;;;4.72;1.60;;;;;;;;;;4970327;28;20039;-79
2023/08/26 14:18:45;;;;;;;5.53;1.48;;;;;;;;;;4970301;28;20034;-79
2023/08/26 14:21:10;;;;;;;3.90;1.42;;;;;;;;;;4992764;28;20034;-79
2023/08/26 14:23:36;;;;;;;3.28;1.10;;;;;;;;;;4972957;28;20023;-79
2023/08/26 14:26:02;;;;;;;4.50;1.50;;;;;;;;;;4975692;28;20039;-79
2023/08/26 14:28:27;;;;;;;2.83;1.70;;;;;;;;;;4973259;28;20047;-79
2023/08/26 14:30:56;;;;;;;3.97;1.40;;;;;;;;;;4973863;28;20094;-79
2023/08/26 14:33:21;;;;;;;3.22;1.40;;;;;;;;;;4991838;28;20371;-79
2023/08/26 14:35:48;;;;;;;3.03;1.50;;;;;;;;;;4972027;28;20065;-79
2023/08/26 14:38:13;;;;;;;3.28;1.35;;;;;;;;;;4967951;28;20062;-81
2023/08/26 14:40:41;;;;;;;4.45;1.80;;;;;;;;;;4987771;28;20026;-79